Time;durP1;ratioP1;P1;durP2;ratioP2;P2;SDS_P1;SDS_P2;PMS_P1;PMS_P2;Temp;Humidity;BMP_temperature;BMP_pressure;BME280_temperature;BME280_humidity;BME280_pressure;Samples;Min_cycle;Max_cycle;Signal;HPM_P1;HPM_P2
2022/08/19 00:02:11;;;;;;;10.07;4.67;;;;;;;;;;5133457;27;20199;-56
2022/08/19 00:04:39;;;;;;;6.10;4.40;;;;;;;;;;5133301;27;20655;-57
2022/08/19 00:07:06;;;;;;;5.57;4.50;;;;;;;;;;5133669;27;20201;-55
2022/08/19 00:09:32;;;;;;;6.57;4.40;;;;;;;;;;5130613;27;20280;-57
2022/08/19 00:11:58;;;;;;;6.50;4.60;;;;;;;;;;5133498;27;20260;-57
2022/08/19 00:14:26;;;;;;;6.23;4.47;;;;;;;;;;5133425;27;20247;-58
2022/08/19 00:16:54;;;;;;;5.97;4.17;;;;;;;;;;5133272;27;20386;-58
2022/08/19 00:19:20;;;;;;;5.70;4.63;;;;;;;;;;5132506;27;20197;-57
2022/08/19 00:21:48;;;;;;;6.57;4.10;;;;;;;;;;5132598;27;20196;-57
2022/08/19 00:24:14;;;;;;;5.80;4.10;;;;;;;;;;5131672;27;20253;-57
2022/08/19 00:26:41;;;;;;;7.07;4.40;;;;;;;;;;5132829;27;20250;-57
2022/08/19 00:29:08;;;;;;;6.30;4.27;;;;;;;;;;5132958;27;20196;-57
2022/08/19 00:31:35;;;;;;;6.10;4.57;;;;;;;;;;5132850;27;20191;-58
2022/08/19 00:34:01;;;;;;;8.17;4.77;;;;;;;;;;5132551;27;20220;-57
2022/08/19 00:36:28;;;;;;;6.23;4.10;;;;;;;;;;5132454;27;20255;-57
2022/08/19 00:38:55;;;;;;;7.47;4.37;;;;;;;;;;5132417;27;20570;-57
2022/08/19 00:41:22;;;;;;;5.63;4.40;;;;;;;;;;5132591;27;20205;-57
2022/08/19 00:43:57;;;;;;;5.10;4.30;;;;;;;;;;5132658;27;20204;-57
2022/08/19 00:46:23;;;;;;;6.27;4.40;;;;;;;;;;5132856;27;20689;-57
2022/08/19 00:48:49;;;;;;;5.37;3.97;;;;;;;;;;5132300;27;20287;-57
2022/08/19 00:51:15;;;;;;;5.23;4.03;;;;;;;;;;5132178;27;20612;-56
2022/08/19 00:53:41;;;;;;;5.03;4.43;;;;;;;;;;5132519;27;20230;-57
2022/08/19 00:56:08;;;;;;;5.93;4.03;;;;;;;;;;5132507;27;20494;-57
2022/08/19 00:58:35;;;;;;;5.03;4.50;;;;;;;;;;5132611;27;20200;-57
2022/08/19 01:01:02;;;;;;;5.07;4.33;;;;;;;;;;5132594;27;20626;-57
2022/08/19 01:03:28;;;;;;;7.17;4.03;;;;;;;;;;5132653;27;20192;-57
2022/08/19 01:05:55;;;;;;;5.67;4.27;;;;;;;;;;5132423;27;20236;-57
2022/08/19 01:08:21;;;;;;;6.10;4.50;;;;;;;;;;5131990;27;20604;-57
2022/08/19 01:10:49;;;;;;;6.03;4.97;;;;;;;;;;5132137;27;20294;-57
2022/08/19 01:13:17;;;;;;;9.77;4.60;;;;;;;;;;5132228;27;20188;-57
2022/08/19 01:15:45;;;;;;;6.60;4.93;;;;;;;;;;5132373;27;20204;-56
2022/08/19 01:18:14;;;;;;;8.10;4.63;;;;;;;;;;5132467;27;20314;-58
2022/08/19 01:20:40;;;;;;;7.40;5.93;;;;;;;;;;5131967;27;20219;-56
2022/08/19 01:23:07;;;;;;;6.87;6.17;;;;;;;;;;5130871;27;20612;-57
2022/08/19 01:25:36;;;;;;;9.37;5.93;;;;;;;;;;5131985;27;20203;-57
2022/08/19 01:28:03;;;;;;;5.93;5.30;;;;;;;;;;5132156;27;20191;-56
2022/08/19 01:30:30;;;;;;;8.07;6.37;;;;;;;;;;5131934;27;20252;-56
2022/08/19 01:32:57;;;;;;;7.37;5.90;;;;;;;;;;5131956;28;20751;-56
2022/08/19 01:35:24;;;;;;;7.20;6.50;;;;;;;;;;5131970;27;20574;-56
2022/08/19 01:37:52;;;;;;;7.60;6.70;;;;;;;;;;5131987;28;20203;-56
2022/08/19 01:40:20;;;;;;;7.97;7.10;;;;;;;;;;5131892;27;20197;-56
2022/08/19 01:42:47;;;;;;;7.80;7.00;;;;;;;;;;5131941;27;20215;-56
2022/08/19 01:45:13;;;;;;;8.47;7.40;;;;;;;;;;5131730;27;20294;-56
2022/08/19 01:47:39;;;;;;;10.07;7.70;;;;;;;;;;5131861;27;20285;-56
2022/08/19 01:50:07;;;;;;;10.00;8.80;;;;;;;;;;5131787;28;20197;-56
2022/08/19 01:52:34;;;;;;;11.60;9.10;;;;;;;;;;5131704;28;20656;-56
2022/08/19 01:55:00;;;;;;;8.53;7.67;;;;;;;;;;5131693;27;20329;-56
2022/08/19 01:57:28;;;;;;;8.43;7.37;;;;;;;;;;5131835;27;20277;-56
2022/08/19 01:59:54;;;;;;;10.00;8.53;;;;;;;;;;5131705;28;20197;-56
2022/08/19 02:02:20;;;;;;;11.03;9.50;;;;;;;;;;5134920;27;20229;-56
2022/08/19 02:04:46;;;;;;;9.40;8.40;;;;;;;;;;5136261;27;20217;-56
2022/08/19 02:07:12;;;;;;;11.53;9.53;;;;;;;;;;5135787;27;20182;-56
2022/08/19 02:12:43;;;;;;;9.73;7.03;;;;;;;;;;5135583;27;20184;-56
2022/08/19 02:15:09;;;;;;;9.77;8.60;;;;;;;;;;5135178;27;20213;-56
2022/08/19 02:17:35;;;;;;;11.20;8.70;;;;;;;;;;5135196;27;20209;-55
2022/08/19 02:20:01;;;;;;;11.83;9.13;;;;;;;;;;5135441;27;20194;-56
2022/08/19 02:22:28;;;;;;;9.30;8.27;;;;;;;;;;5135370;27;20201;-56
2022/08/19 02:24:54;;;;;;;10.10;9.03;;;;;;;;;;5135300;27;20597;-56
2022/08/19 02:27:20;;;;;;;10.07;8.60;;;;;;;;;;5135116;27;20202;-56
2022/08/19 02:29:48;;;;;;;8.43;7.60;;;;;;;;;;5135312;27;20297;-55
2022/08/19 02:32:14;;;;;;;10.17;8.50;;;;;;;;;;5133199;27;20201;-56
2022/08/19 02:34:41;;;;;;;9.97;8.20;;;;;;;;;;5134767;27;20228;-56
2022/08/19 02:38:24;;;;;;;9.13;8.23;;;;;;;;;;5116385;27;20619;-55
2022/08/19 02:39:53;;;;;;;12.20;8.50;;;;;;;;;;5134984;27;20731;-55
2022/08/19 02:42:19;;;;;;;10.30;8.30;;;;;;;;;;5134771;27;20559;-56
2022/08/19 02:44:45;;;;;;;9.27;8.13;;;;;;;;;;5135193;27;20210;-56
2022/08/19 02:47:14;;;;;;;8.30;7.47;;;;;;;;;;5134679;27;20209;-55
2022/08/19 02:49:40;;;;;;;9.93;8.23;;;;;;;;;;5134644;27;20254;-55
2022/08/19 02:52:06;;;;;;;9.47;8.07;;;;;;;;;;5134793;27;20189;-55
2022/08/19 02:54:32;;;;;;;10.57;8.27;;;;;;;;;;5134703;27;20289;-55
2022/08/19 02:56:58;;;;;;;8.13;7.30;;;;;;;;;;5134752;27;20712;-55
2022/08/19 02:59:25;;;;;;;8.30;7.60;;;;;;;;;;5134670;27;20226;-56
2022/08/19 03:01:51;;;;;;;9.40;8.50;;;;;;;;;;5134727;27;20286;-56
2022/08/19 03:04:19;;;;;;;8.90;8.10;;;;;;;;;;5134544;27;20552;-55
2022/08/19 03:06:47;;;;;;;9.37;8.23;;;;;;;;;;5134999;27;20210;-55
2022/08/19 03:09:13;;;;;;;9.80;8.80;;;;;;;;;;5134331;27;20772;-55
2022/08/19 03:11:40;;;;;;;9.90;9.00;;;;;;;;;;5134565;27;20676;-55
2022/08/19 03:14:07;;;;;;;9.50;8.70;;;;;;;;;;5133515;27;20754;-56
2022/08/19 03:16:34;;;;;;;8.77;7.17;;;;;;;;;;5134503;27;20185;-55
2022/08/19 03:19:01;;;;;;;8.90;7.47;;;;;;;;;;5134303;27;20606;-55
2022/08/19 03:21:30;;;;;;;10.23;8.00;;;;;;;;;;5134182;27;20740;-55
2022/08/19 03:23:56;;;;;;;9.50;8.50;;;;;;;;;;5131651;27;20193;-56
2022/08/19 03:26:22;;;;;;;11.03;8.00;;;;;;;;;;5133702;27;20200;-56
2022/08/19 03:28:49;;;;;;;10.13;8.50;;;;;;;;;;5134216;27;20197;-55
2022/08/19 03:31:16;;;;;;;8.43;7.40;;;;;;;;;;5134284;27;20201;-55
2022/08/19 03:33:42;;;;;;;10.80;8.37;;;;;;;;;;5134019;27;20559;-56
2022/08/19 03:36:12;;;;;;;8.77;7.90;;;;;;;;;;5132215;27;20216;-55
2022/08/19 03:38:40;;;;;;;9.77;8.50;;;;;;;;;;5133596;27;20197;-55
2022/08/19 03:41:07;;;;;;;8.53;7.70;;;;;;;;;;5133898;27;20246;-55
2022/08/19 03:43:34;;;;;;;9.43;8.43;;;;;;;;;;5133806;27;20197;-54
2022/08/19 03:46:02;;;;;;;11.60;8.70;;;;;;;;;;5133817;27;20220;-56
2022/08/19 03:48:29;;;;;;;9.27;8.37;;;;;;;;;;5134029;27;20255;-55
2022/08/19 03:50:56;;;;;;;10.47;9.17;;;;;;;;;;5133846;27;20198;-54
2022/08/19 03:53:22;;;;;;;10.20;8.63;;;;;;;;;;5133558;27;20288;-55
2022/08/19 03:55:49;;;;;;;10.47;9.37;;;;;;;;;;5133366;27;20308;-55
2022/08/19 03:58:15;;;;;;;10.80;9.70;;;;;;;;;;5133381;27;20205;-55
2022/08/19 04:00:42;;;;;;;11.90;9.70;;;;;;;;;;5133477;27;20198;-55
2022/08/19 04:03:08;;;;;;;10.87;9.60;;;;;;;;;;5133222;27;20196;-55
2022/08/19 04:05:34;;;;;;;10.40;9.30;;;;;;;;;;5131002;27;20470;-54
2022/08/19 04:08:00;;;;;;;10.13;9.03;;;;;;;;;;5133418;27;20278;-55
2022/08/19 04:10:27;;;;;;;13.30;10.60;;;;;;;;;;5132594;27;20588;-55
2022/08/19 04:12:55;;;;;;;14.37;9.33;;;;;;;;;;5133241;27;20201;-55
2022/08/19 04:15:21;;;;;;;9.83;8.83;;;;;;;;;;5131848;27;20229;-56
2022/08/19 04:17:47;;;;;;;10.60;9.17;;;;;;;;;;5133437;27;20697;-55
2022/08/19 04:20:13;;;;;;;10.37;9.27;;;;;;;;;;5133170;27;20743;-55
2022/08/19 04:22:39;;;;;;;12.47;10.47;;;;;;;;;;5132829;27;20672;-55
2022/08/19 04:25:05;;;;;;;10.60;9.57;;;;;;;;;;5132862;27;20197;-55
2022/08/19 04:27:33;;;;;;;11.23;10.03;;;;;;;;;;5132111;27;20644;-54
2022/08/19 04:30:00;;;;;;;11.07;8.87;;;;;;;;;;5132726;27;20205;-55
2022/08/19 04:32:26;;;;;;;15.20;10.30;;;;;;;;;;5132788;27;20201;-55
2022/08/19 04:34:53;;;;;;;12.23;10.97;;;;;;;;;;5132675;27;20251;-55
2022/08/19 04:37:19;;;;;;;12.80;10.43;;;;;;;;;;5132805;27;20556;-55
2022/08/19 04:42:38;;;;;;;15.00;11.20;;;;;;;;;;5132418;27;20192;-55
2022/08/19 04:45:07;;;;;;;12.63;10.83;;;;;;;;;;5132636;27;20256;-55
2022/08/19 04:47:33;;;;;;;16.53;11.80;;;;;;;;;;5132640;27;20197;-55
2022/08/19 04:49:59;;;;;;;15.83;12.80;;;;;;;;;;5132700;27;20199;-54
2022/08/19 04:52:25;;;;;;;12.60;10.33;;;;;;;;;;5132726;27;20706;-55
2022/08/19 04:54:51;;;;;;;13.50;12.10;;;;;;;;;;5131365;27;20221;-55
2022/08/19 04:57:17;;;;;;;13.50;11.70;;;;;;;;;;5132672;27;20274;-55
2022/08/19 04:59:43;;;;;;;12.17;10.90;;;;;;;;;;5131385;27;20232;-55
2022/08/19 05:02:10;;;;;;;14.27;12.23;;;;;;;;;;5132668;27;20678;-55
2022/08/19 05:04:38;;;;;;;13.57;12.17;;;;;;;;;;5132215;27;20209;-54
2022/08/19 05:07:04;;;;;;;14.17;12.20;;;;;;;;;;5132218;27;20231;-55
2022/08/19 05:09:31;;;;;;;13.43;12.03;;;;;;;;;;5130861;27;20711;-55
2022/08/19 05:11:57;;;;;;;17.10;11.70;;;;;;;;;;5132189;27;20201;-55
2022/08/19 05:14:23;;;;;;;12.93;11.63;;;;;;;;;;5130455;27;20244;-55
2022/08/19 05:16:49;;;;;;;12.00;10.60;;;;;;;;;;5132286;27;20197;-55
2022/08/19 05:24:46;;;;;;;13.60;11.80;;;;;;;;;;5132069;27;20200;-54
2022/08/19 05:27:12;;;;;;;13.63;10.80;;;;;;;;;;5131955;27;20200;-55
2022/08/19 05:29:38;;;;;;;14.97;11.73;;;;;;;;;;5131314;27;20194;-55
2022/08/19 05:32:08;;;;;;;12.70;11.40;;;;;;;;;;5131935;27;20277;-55
2022/08/19 05:34:37;;;;;;;13.07;11.23;;;;;;;;;;5131910;28;20248;-55
2022/08/19 05:37:04;;;;;;;11.47;10.37;;;;;;;;;;5131534;27;20251;-55
2022/08/19 05:39:31;;;;;;;11.70;10.50;;;;;;;;;;5131740;27;20200;-55
2022/08/19 05:41:58;;;;;;;9.53;8.60;;;;;;;;;;5131550;28;20219;-55
2022/08/19 05:44:24;;;;;;;14.57;11.67;;;;;;;;;;5131561;27;20217;-55
2022/08/19 05:46:54;;;;;;;12.37;10.73;;;;;;;;;;5131771;27;20636;-54
2022/08/19 05:49:21;;;;;;;14.20;10.83;;;;;;;;;;5130448;27;20593;-54
2022/08/19 05:51:48;;;;;;;13.43;11.47;;;;;;;;;;5131803;27;20206;-55
2022/08/19 05:54:14;;;;;;;11.87;10.53;;;;;;;;;;5131787;28;20214;-55
2022/08/19 05:56:41;;;;;;;12.73;11.13;;;;;;;;;;5131767;27;20673;-55
2022/08/19 05:59:09;;;;;;;11.90;10.80;;;;;;;;;;5131506;28;20198;-55
2022/08/19 06:01:35;;;;;;;11.40;10.30;;;;;;;;;;5131594;28;20255;-56
2022/08/19 06:04:02;;;;;;;12.07;10.50;;;;;;;;;;5132518;28;20289;-55
2022/08/19 06:06:28;;;;;;;9.60;8.40;;;;;;;;;;5131860;27;20199;-55
2022/08/19 06:08:55;;;;;;;11.37;8.97;;;;;;;;;;5132177;27;20282;-55
2022/08/19 06:11:22;;;;;;;10.47;9.47;;;;;;;;;;5129642;27;20732;-55
2022/08/19 06:13:50;;;;;;;11.73;10.03;;;;;;;;;;5129994;27;20208;-55
2022/08/19 06:16:22;;;;;;;10.77;9.73;;;;;;;;;;5131672;28;20652;-55
2022/08/19 06:18:51;;;;;;;12.60;9.90;;;;;;;;;;5130269;28;20197;-55
2022/08/19 06:21:17;;;;;;;15.23;11.30;;;;;;;;;;5131188;28;20191;-55
2022/08/19 06:23:43;;;;;;;11.07;9.60;;;;;;;;;;5131392;28;20618;-56
2022/08/19 06:26:13;;;;;;;10.77;9.77;;;;;;;;;;5131389;27;20254;-56
2022/08/19 06:28:42;;;;;;;10.93;9.70;;;;;;;;;;5131376;28;20606;-56
2022/08/19 06:31:09;;;;;;;10.70;9.07;;;;;;;;;;5125951;27;20204;-56
2022/08/19 06:33:35;;;;;;;12.50;8.30;;;;;;;;;;5131275;27;20614;-58
2022/08/19 06:36:01;;;;;;;10.37;9.37;;;;;;;;;;5131127;27;20225;-56
2022/08/19 06:38:27;;;;;;;8.60;7.60;;;;;;;;;;5131326;28;20617;-57
2022/08/19 06:41:00;;;;;;;10.53;7.40;;;;;;;;;;5129953;27;20292;-57
2022/08/19 06:43:27;;;;;;;6.10;5.50;;;;;;;;;;5131232;28;20209;-58
2022/08/19 06:45:53;;;;;;;5.10;4.60;;;;;;;;;;5130295;28;20718;-58
2022/08/19 06:48:19;;;;;;;5.43;4.17;;;;;;;;;;5132613;27;20197;-58
2022/08/19 06:50:45;;;;;;;5.53;4.60;;;;;;;;;;5135213;27;20193;-58
2022/08/19 06:53:11;;;;;;;5.00;4.50;;;;;;;;;;5134487;27;20193;-58
2022/08/19 06:55:37;;;;;;;5.30;4.83;;;;;;;;;;5134582;27;20248;-57
2022/08/19 06:58:04;;;;;;;4.40;3.97;;;;;;;;;;5135068;27;20664;-57
2022/08/19 07:00:31;;;;;;;4.23;3.83;;;;;;;;;;5134620;27;20201;-57
2022/08/19 07:02:58;;;;;;;5.70;4.27;;;;;;;;;;5134681;27;20202;-58
2022/08/19 07:05:24;;;;;;;7.87;4.07;;;;;;;;;;5134633;27;20191;-57
2022/08/19 07:07:50;;;;;;;4.10;3.70;;;;;;;;;;5134774;27;20237;-58
2022/08/19 07:10:16;;;;;;;4.03;3.50;;;;;;;;;;5132790;27;20581;-57
2022/08/19 07:12:42;;;;;;;5.43;3.93;;;;;;;;;;5133176;27;20191;-57
2022/08/19 07:15:09;;;;;;;6.13;3.27;;;;;;;;;;5132679;27;20718;-57
2022/08/19 07:17:38;;;;;;;3.53;3.13;;;;;;;;;;5134134;27;20200;-57
2022/08/19 07:20:06;;;;;;;6.60;3.70;;;;;;;;;;5134378;27;20202;-56
2022/08/19 07:22:33;;;;;;;3.27;2.67;;;;;;;;;;5134294;27;20189;-57
2022/08/19 07:24:59;;;;;;;3.00;2.70;;;;;;;;;;5133926;27;20603;-56
2022/08/19 07:27:25;;;;;;;3.93;3.23;;;;;;;;;;5134293;27;20243;-56
2022/08/19 07:29:52;;;;;;;4.73;3.20;;;;;;;;;;5134264;27;20235;-57
2022/08/19 07:32:18;;;;;;;3.80;3.30;;;;;;;;;;5134189;27;20292;-57
2022/08/19 07:34:45;;;;;;;3.97;3.10;;;;;;;;;;5134315;27;20313;-57
2022/08/19 07:37:11;;;;;;;4.97;3.77;;;;;;;;;;5132259;27;20198;-56
2022/08/19 07:39:37;;;;;;;4.47;4.07;;;;;;;;;;5133856;27;20204;-57
2022/08/19 07:42:06;;;;;;;5.17;4.07;;;;;;;;;;5132296;27;20195;-57
2022/08/19 07:44:33;;;;;;;4.47;3.40;;;;;;;;;;5115583;27;20241;-57
2022/08/19 07:46:59;;;;;;;5.20;3.57;;;;;;;;;;5133685;27;20198;-58
2022/08/19 07:49:25;;;;;;;4.03;3.67;;;;;;;;;;5133858;27;20221;-56
2022/08/19 07:51:54;;;;;;;7.90;4.47;;;;;;;;;;5132645;27;20233;-57
2022/08/19 07:54:20;;;;;;;5.10;4.40;;;;;;;;;;5133358;27;20214;-57
2022/08/19 07:56:46;;;;;;;5.03;4.63;;;;;;;;;;5133781;27;20197;-56
2022/08/19 07:59:12;;;;;;;5.77;4.50;;;;;;;;;;5132875;27;20194;-57
2022/08/19 08:01:39;;;;;;;5.13;4.63;;;;;;;;;;5132657;27;20570;-57
2022/08/19 08:09:37;;;;;;;6.40;4.33;;;;;;;;;;5131550;27;20236;-58
2022/08/19 08:12:05;;;;;;;5.30;4.00;;;;;;;;;;5133304;27;20193;-58
2022/08/19 08:14:32;;;;;;;4.63;3.30;;;;;;;;;;5133259;27;20223;-58
2022/08/19 08:16:59;;;;;;;4.10;3.27;;;;;;;;;;5132559;27;20197;-58
2022/08/19 08:19:26;;;;;;;3.47;3.17;;;;;;;;;;5132180;27;20200;-58
2022/08/19 08:21:52;;;;;;;6.17;3.70;;;;;;;;;;5133011;27;20221;-58
2022/08/19 08:24:19;;;;;;;3.40;3.10;;;;;;;;;;5132284;27;20221;-58
2022/08/19 08:26:47;;;;;;;4.30;3.40;;;;;;;;;;5132907;27;20565;-58
2022/08/19 08:29:13;;;;;;;4.90;3.23;;;;;;;;;;5132928;27;20276;-58
2022/08/19 08:31:39;;;;;;;5.00;4.33;;;;;;;;;;5132280;27;20198;-58
2022/08/19 08:34:05;;;;;;;5.73;3.97;;;;;;;;;;5133025;27;20199;-58
2022/08/19 08:36:33;;;;;;;8.00;4.30;;;;;;;;;;5132686;27;20201;-58
2022/08/19 08:38:59;;;;;;;5.73;4.60;;;;;;;;;;5131662;27;20209;-58
2022/08/19 08:41:28;;;;;;;5.40;4.23;;;;;;;;;;5132138;27;20251;-59
2022/08/19 08:43:56;;;;;;;5.17;3.37;;;;;;;;;;5132321;27;20201;-58
2022/08/19 08:46:26;;;;;;;4.23;3.57;;;;;;;;;;5132091;27;20722;-58
2022/08/19 08:48:54;;;;;;;5.33;3.97;;;;;;;;;;5132937;27;20201;-58
2022/08/19 08:51:22;;;;;;;5.73;4.80;;;;;;;;;;5130206;27;20201;-58
2022/08/19 08:53:49;;;;;;;6.03;4.50;;;;;;;;;;5132876;27;20284;-58
2022/08/19 08:56:16;;;;;;;5.87;3.57;;;;;;;;;;5131442;27;20229;-59
2022/08/19 08:58:49;;;;;;;5.90;3.60;;;;;;;;;;5132540;27;20613;-58
2022/08/19 09:01:17;;;;;;;4.60;3.60;;;;;;;;;;5132459;27;20643;-58
2022/08/19 09:03:45;;;;;;;6.43;3.70;;;;;;;;;;5131814;27;20654;-58
2022/08/19 09:06:15;;;;;;;4.53;3.70;;;;;;;;;;5132091;27;20211;-58
2022/08/19 09:08:45;;;;;;;7.83;3.50;;;;;;;;;;5132549;27;20296;-58
2022/08/19 09:11:15;;;;;;;4.03;3.03;;;;;;;;;;5131346;27;20197;-58
2022/08/19 09:13:45;;;;;;;3.53;3.23;;;;;;;;;;5132095;27;20289;-58
2022/08/19 09:16:12;;;;;;;4.57;4.07;;;;;;;;;;5131788;27;20216;-58
2022/08/19 09:18:41;;;;;;;6.20;3.53;;;;;;;;;;5131880;27;20201;-58
2022/08/19 09:21:08;;;;;;;4.53;3.17;;;;;;;;;;5131508;27;20198;-58
2022/08/19 09:23:34;;;;;;;4.47;3.10;;;;;;;;;;5131762;27;20223;-58
2022/08/19 09:26:00;;;;;;;5.90;2.80;;;;;;;;;;5131767;27;20226;-58
2022/08/19 09:28:28;;;;;;;3.07;2.60;;;;;;;;;;5131695;27;20196;-58
2022/08/19 09:30:54;;;;;;;4.33;2.97;;;;;;;;;;5131329;27;20194;-58
2022/08/19 09:33:20;;;;;;;4.20;2.90;;;;;;;;;;5131633;27;20207;-58
2022/08/19 09:35:47;;;;;;;4.03;2.83;;;;;;;;;;5132219;28;20224;-58
2022/08/19 09:38:13;;;;;;;3.50;2.80;;;;;;;;;;5131736;27;20224;-58
2022/08/19 09:40:40;;;;;;;4.27;2.80;;;;;;;;;;5132280;28;20687;-58
2022/08/19 09:43:06;;;;;;;3.57;2.67;;;;;;;;;;5131939;27;20202;-58
2022/08/19 09:45:32;;;;;;;5.38;3.58;;;;;;;;;;5128692;28;20459;-61
2022/08/19 09:47:58;;;;;;;3.17;2.73;;;;;;;;;;5131558;28;20202;-58
2022/08/19 09:50:24;;;;;;;4.30;2.80;;;;;;;;;;5131070;28;20704;-57
2022/08/19 09:52:56;;;;;;;7.87;2.60;;;;;;;;;;5131743;28;20221;-58
2022/08/19 09:55:22;;;;;;;4.27;2.90;;;;;;;;;;5131757;27;20249;-57
2022/08/19 09:57:48;;;;;;;3.00;2.40;;;;;;;;;;5132022;28;20238;-57
2022/08/19 10:00:14;;;;;;;;;;;;;;;;;;5132510;28;20047;-57
2022/08/19 10:02:40;;;;;;;;;;;;;;;;;;5132279;28;19960;-58
2022/08/19 10:07:50;;;;;;;;;;;;;;;;;;5132162;28;20003;-58
2022/08/19 10:10:16;;;;;;;;;;;;;;;;;;5132433;28;20430;-58
2022/08/19 10:12:48;;;;;;;;;;;;;;;;;;5132401;28;19911;-57
2022/08/19 10:15:16;;;;;;;4.00;2.40;;;;;;;;;;5130877;27;20457;-58
2022/08/19 10:17:42;;;;;;;5.88;2.30;;;;;;;;;;5130427;27;20391;-58
2022/08/19 10:20:09;;;;;;;3.03;2.40;;;;;;;;;;5131619;27;20704;-58
2022/08/19 10:22:37;;;;;;;2.73;2.10;;;;;;;;;;5133016;27;20194;-58
2022/08/19 10:25:03;;;;;;;3.63;2.17;;;;;;;;;;5135429;27;20721;-58
2022/08/19 10:27:30;;;;;;;2.73;2.40;;;;;;;;;;5135533;27;20206;-58
2022/08/19 10:29:56;;;;;;;7.80;2.30;;;;;;;;;;5135604;27;20317;-58
2022/08/19 10:32:25;;;;;;;3.78;2.40;;;;;;;;;;5133863;27;20394;-58
2022/08/19 10:34:52;;;;;;;6.43;2.17;;;;;;;;;;5133796;27;20416;-57
2022/08/19 10:37:18;;;;;;;4.33;2.03;;;;;;;;;;5135264;27;20288;-58
2022/08/19 10:39:47;;;;;;;6.30;2.10;;;;;;;;;;5134489;27;20195;-58
2022/08/19 10:42:13;;;;;;;5.50;2.30;;;;;;;;;;5134736;27;20222;-58
2022/08/19 10:44:40;;;;;;;5.83;2.30;;;;;;;;;;5134690;27;20296;-58
2022/08/19 10:47:06;;;;;;;2.87;2.10;;;;;;;;;;5135007;27;20222;-58
2022/08/19 10:52:32;;;;;;;6.07;1.93;;;;;;;;;;5134084;27;20264;-58
2022/08/19 10:52:34;;;;;;;3.93;1.93;;;;;;;;;;5134734;27;20687;-58
2022/08/19 10:57:45;;;;;;;2.90;1.93;;;;;;;;;;5132958;27;20664;-58
2022/08/19 11:00:11;;;;;;;3.23;1.90;;;;;;;;;;5135158;27;20243;-57
2022/08/19 11:02:38;;;;;;;3.10;2.27;;;;;;;;;;5134923;27;20210;-57
2022/08/19 11:05:06;;;;;;;2.53;1.97;;;;;;;;;;5134794;27;20565;-58
2022/08/19 11:07:32;;;;;;;4.33;1.87;;;;;;;;;;5134623;27;20204;-57
2022/08/19 11:09:58;;;;;;;4.47;2.00;;;;;;;;;;5134724;27;20203;-58
2022/08/19 11:12:24;;;;;;;2.43;1.60;;;;;;;;;;5133912;27;20204;-57
2022/08/19 11:14:50;;;;;;;2.23;1.73;;;;;;;;;;5134726;27;20307;-58
2022/08/19 11:17:16;;;;;;;3.70;1.70;;;;;;;;;;5134318;27;20718;-57
2022/08/19 11:19:42;;;;;;;2.90;1.77;;;;;;;;;;5133969;27;20296;-59
2022/08/19 11:22:09;;;;;;;6.23;1.97;;;;;;;;;;5134625;27;20285;-58
2022/08/19 11:24:36;;;;;;;2.50;2.00;;;;;;;;;;5134305;27;20206;-58
2022/08/19 11:27:04;;;;;;;1.90;1.50;;;;;;;;;;5133538;27;20192;-59
2022/08/19 11:29:30;;;;;;;2.67;1.60;;;;;;;;;;5132505;27;20406;-59
2022/08/19 11:31:57;;;;;;;1.70;1.60;;;;;;;;;;5134675;27;20678;-59
2022/08/19 11:34:28;;;;;;;2.70;1.70;;;;;;;;;;5126955;27;20223;-58
2022/08/19 11:36:57;;;;;;;4.40;1.67;;;;;;;;;;5123424;27;20195;-59
2022/08/19 11:39:26;;;;;;;5.33;1.90;;;;;;;;;;5123971;27;20197;-58
2022/08/19 11:41:52;;;;;;;5.17;1.63;;;;;;;;;;5122684;27;20219;-59
2022/08/19 11:44:18;;;;;;;3.77;1.80;;;;;;;;;;5121325;27;20406;-58
2022/08/19 11:46:46;;;;;;;3.13;1.70;;;;;;;;;;5122880;27;20394;-58
2022/08/19 11:49:12;;;;;;;2.22;1.50;;;;;;;;;;5121388;27;20399;-58
2022/08/19 11:51:38;;;;;;;2.95;1.65;;;;;;;;;;5120928;27;20957;-60
2022/08/19 11:54:05;;;;;;;4.35;1.77;;;;;;;;;;5122549;27;20422;-59
2022/08/19 11:56:33;;;;;;;4.50;1.80;;;;;;;;;;5121350;27;20891;-58
2022/08/19 11:59:00;;;;;;;4.53;1.77;;;;;;;;;;5121146;27;20760;-59
2022/08/19 12:01:27;;;;;;;3.57;1.77;;;;;;;;;;5122295;27;20391;-60
2022/08/19 12:03:54;;;;;;;2.95;1.60;;;;;;;;;;5121078;27;20408;-58
2022/08/19 12:06:28;;;;;;;2.00;1.40;;;;;;;;;;5120880;27;20389;-59
2022/08/19 12:08:54;;;;;;;2.15;1.40;;;;;;;;;;5121163;27;20462;-60
2022/08/19 12:11:21;;;;;;;3.42;1.30;;;;;;;;;;5120531;27;20401;-60
2022/08/19 12:13:48;;;;;;;2.97;1.33;;;;;;;;;;5122427;27;20469;-60
2022/08/19 12:16:15;;;;;;;4.17;1.30;;;;;;;;;;5122226;27;20297;-58
2022/08/19 12:18:45;;;;;;;3.63;1.40;;;;;;;;;;5121649;27;20189;-59
2022/08/19 12:21:13;;;;;;;3.60;1.13;;;;;;;;;;5114749;27;20213;-58
2022/08/19 12:23:39;;;;;;;1.60;1.00;;;;;;;;;;5110766;28;20204;-58
2022/08/19 12:26:05;;;;;;;3.80;1.33;;;;;;;;;;5112793;28;20194;-58
2022/08/19 12:28:31;;;;;;;2.33;1.40;;;;;;;;;;5111414;28;20203;-58
2022/08/19 12:30:58;;;;;;;1.30;1.10;;;;;;;;;;5112243;28;20198;-59
2022/08/19 12:33:27;;;;;;;2.03;1.07;;;;;;;;;;5111012;28;20201;-58
2022/08/19 12:35:53;;;;;;;6.87;1.40;;;;;;;;;;5111233;28;20240;-59
2022/08/19 12:38:19;;;;;;;2.77;1.10;;;;;;;;;;5110955;28;20206;-58
2022/08/19 12:40:47;;;;;;;1.80;1.20;;;;;;;;;;5112505;28;20251;-58
2022/08/19 12:43:15;;;;;;;1.47;1.10;;;;;;;;;;5111739;28;20200;-59
2022/08/19 12:45:42;;;;;;;3.47;1.20;;;;;;;;;;5111978;28;20214;-58
2022/08/19 12:48:09;;;;;;;10.00;1.83;;;;;;;;;;5111771;28;20547;-58
2022/08/19 12:50:35;;;;;;;4.40;1.47;;;;;;;;;;5112040;28;20198;-58
2022/08/19 12:53:01;;;;;;;3.50;1.43;;;;;;;;;;5112539;28;20199;-59
2022/08/19 12:55:28;;;;;;;2.70;1.63;;;;;;;;;;5112003;28;20281;-58
2022/08/19 12:57:55;;;;;;;2.83;1.30;;;;;;;;;;5111699;28;20240;-58
2022/08/19 13:00:22;;;;;;;2.90;1.50;;;;;;;;;;5112049;28;20197;-58
2022/08/19 13:02:50;;;;;;;1.93;1.30;;;;;;;;;;5111349;28;20244;-59
2022/08/19 13:05:22;;;;;;;2.10;1.27;;;;;;;;;;5110296;28;20213;-59
2022/08/19 13:07:49;;;;;;;2.40;1.40;;;;;;;;;;5112482;28;20237;-59
2022/08/19 13:10:16;;;;;;;1.30;1.20;;;;;;;;;;5108813;28;20283;-58
2022/08/19 13:12:42;;;;;;;4.67;1.20;;;;;;;;;;5112285;28;20201;-59
2022/08/19 13:15:08;;;;;;;1.97;1.60;;;;;;;;;;5111917;28;20235;-59
2022/08/19 13:17:35;;;;;;;1.20;1.10;;;;;;;;;;5112103;28;20203;-59
2022/08/19 13:20:01;;;;;;;3.23;1.23;;;;;;;;;;5112329;28;20650;-59
2022/08/19 13:22:29;;;;;;;1.27;1.13;;;;;;;;;;5112152;28;20193;-59
2022/08/19 13:24:55;;;;;;;3.20;1.20;;;;;;;;;;5112117;28;20214;-58
2022/08/19 13:27:21;;;;;;;1.20;1.10;;;;;;;;;;5111912;28;20204;-58
2022/08/19 13:35:16;;;;;;;3.27;1.47;;;;;;;;;;5112053;28;20620;-59
2022/08/19 13:37:43;;;;;;;2.13;1.40;;;;;;;;;;5111952;28;20279;-58
2022/08/19 13:40:12;;;;;;;3.40;2.00;;;;;;;;;;5111971;28;20204;-59
2022/08/19 13:42:38;;;;;;;1.63;1.50;;;;;;;;;;5111864;28;20205;-58
2022/08/19 13:45:06;;;;;;;2.10;1.13;;;;;;;;;;5111921;28;20305;-58
2022/08/19 13:47:34;;;;;;;3.23;1.30;;;;;;;;;;5112072;28;20197;-59
2022/08/19 13:50:00;;;;;;;2.63;1.10;;;;;;;;;;5111957;28;20205;-59
2022/08/19 13:52:26;;;;;;;0.73;0.73;;;;;;;;;;5111705;28;20201;-58
2022/08/19 13:54:53;;;;;;;1.40;1.10;;;;;;;;;;5111528;28;20353;-59
2022/08/19 13:57:19;;;;;;;1.20;1.10;;;;;;;;;;5113376;28;20603;-58
2022/08/19 13:59:45;;;;;;;3.03;1.20;;;;;;;;;;5116120;28;20205;-58
2022/08/19 14:02:11;;;;;;;3.03;1.10;;;;;;;;;;5116143;28;20202;-58
2022/08/19 14:04:37;;;;;;;1.47;1.10;;;;;;;;;;5113729;28;20200;-59
2022/08/19 14:07:04;;;;;;;1.37;1.00;;;;;;;;;;5113128;28;20193;-59
2022/08/19 14:09:30;;;;;;;1.30;1.00;;;;;;;;;;5114527;28;20753;-59
2022/08/19 14:11:57;;;;;;;2.13;0.90;;;;;;;;;;5115007;28;20196;-59
2022/08/19 14:14:23;;;;;;;2.23;1.10;;;;;;;;;;5114800;28;20209;-58
2022/08/19 14:16:51;;;;;;;2.03;1.07;;;;;;;;;;5115071;28;20258;-58
2022/08/19 14:19:17;;;;;;;2.17;1.00;;;;;;;;;;5115055;28;20201;-58
2022/08/19 14:21:43;;;;;;;1.23;1.00;;;;;;;;;;5113883;28;20197;-58
2022/08/19 14:24:09;;;;;;;2.07;0.80;;;;;;;;;;5114163;28;20765;-58
2022/08/19 14:26:35;;;;;;;4.20;1.07;;;;;;;;;;5115066;28;20275;-58
2022/08/19 14:29:02;;;;;;;1.10;1.00;;;;;;;;;;5113477;28;20609;-59
2022/08/19 14:31:28;;;;;;;2.30;1.00;;;;;;;;;;5114727;28;20196;-59
2022/08/19 14:33:54;;;;;;;2.83;0.80;;;;;;;;;;5114850;28;20729;-59
2022/08/19 14:36:21;;;;;;;0.73;0.73;;;;;;;;;;5114546;28;20224;-59
2022/08/19 14:38:48;;;;;;;1.40;1.30;;;;;;;;;;5115106;28;20200;-58
2022/08/19 14:41:16;;;;;;;1.30;1.20;;;;;;;;;;5114754;28;20245;-58
2022/08/19 14:43:45;;;;;;;2.17;0.73;;;;;;;;;;5114161;28;20212;-58
2022/08/19 14:46:13;;;;;;;2.30;1.03;;;;;;;;;;5113829;28;20236;-59
2022/08/19 14:48:39;;;;;;;1.30;0.80;;;;;;;;;;5112746;28;20276;-56
2022/08/19 14:51:05;;;;;;;1.90;0.90;;;;;;;;;;5114150;28;20206;-56
2022/08/19 14:53:33;;;;;;;2.43;1.30;;;;;;;;;;5112082;28;20196;-56
2022/08/19 14:55:59;;;;;;;2.03;1.10;;;;;;;;;;5114631;28;20316;-56
2022/08/19 14:58:25;;;;;;;0.80;0.80;;;;;;;;;;5113969;28;20200;-56
2022/08/19 15:00:51;;;;;;;1.13;1.03;;;;;;;;;;5113833;28;20202;-56
2022/08/19 15:03:19;;;;;;;1.23;1.00;;;;;;;;;;5113669;28;20202;-56
2022/08/19 15:05:45;;;;;;;1.17;1.00;;;;;;;;;;5114139;28;20263;-56
2022/08/19 15:08:11;;;;;;;1.33;1.10;;;;;;;;;;5112244;28;20231;-56